sensor_id;sensor_type;location;lat;lon;timestamp;pressure;altitude;pressure_sealevel;temperature
45850;BMP180;10739;52.198;20.908;2023-01-30T00:01:06;100005.00;;;3.50
45850;BMP180;10739;52.198;20.908;2023-01-30T00:03:38;99999.00;;;3.70
45850;BMP180;10739;52.198;20.908;2023-01-30T00:06:04;100002.00;;;3.70
45850;BMP180;10739;52.198;20.908;2023-01-30T00:08:30;100000.00;;;3.90
45850;BMP180;10739;52.198;20.908;2023-01-30T00:11:02;99990.00;;;3.90
45850;BMP180;10739;52.198;20.908;2023-01-30T00:13:29;99986.00;;;3.90
45850;BMP180;10739;52.198;20.908;2023-01-30T00:15:56;99976.00;;;3.80
45850;BMP180;10739;52.198;20.908;2023-01-30T00:18:22;99963.00;;;3.90
45850;BMP180;10739;52.198;20.908;2023-01-30T00:20:59;99954.00;;;3.30
45850;BMP180;10739;52.198;20.908;2023-01-30T00:23:27;99964.00;;;3.50
45850;BMP180;10739;52.198;20.908;2023-01-30T00:25:54;99947.00;;;3.70
45850;BMP180;10739;52.198;20.908;2023-01-30T00:28:21;99944.00;;;3.60
45850;BMP180;10739;52.198;20.908;2023-01-30T00:30:49;99943.00;;;3.40
45850;BMP180;10739;52.198;20.908;2023-01-30T00:33:18;99936.00;;;3.70
45850;BMP180;10739;52.198;20.908;2023-01-30T00:35:47;99923.00;;;3.70
45850;BMP180;10739;52.198;20.908;2023-01-30T00:38:14;99924.00;;;3.60
45850;BMP180;10739;52.198;20.908;2023-01-30T00:40:41;99918.00;;;3.80
45850;BMP180;10739;52.198;20.908;2023-01-30T00:43:13;99909.00;;;3.20
45850;BMP180;10739;52.198;20.908;2023-01-30T00:46:02;99905.00;;;3.40
45850;BMP180;10739;52.198;20.908;2023-01-30T00:48:47;99903.00;;;3.40
45850;BMP180;10739;52.198;20.908;2023-01-30T00:51:14;99886.00;;;3.70
45850;BMP180;10739;52.198;20.908;2023-01-30T00:53:40;99897.00;;;3.30
45850;BMP180;10739;52.198;20.908;2023-01-30T00:56:06;99880.00;;;3.80
45850;BMP180;10739;52.198;20.908;2023-01-30T00:58:33;99876.00;;;3.50
45850;BMP180;10739;52.198;20.908;2023-01-30T01:00:59;99873.00;;;3.40
45850;BMP180;10739;52.198;20.908;2023-01-30T01:03:29;99855.00;;;3.70
45850;BMP180;10739;52.198;20.908;2023-01-30T01:05:57;99857.00;;;3.70
45850;BMP180;10739;52.198;20.908;2023-01-30T01:08:24;99858.00;;;3.50
45850;BMP180;10739;52.198;20.908;2023-01-30T01:10:52;99839.00;;;3.40
45850;BMP180;10739;52.198;20.908;2023-01-30T01:13:19;99828.00;;;3.50
45850;BMP180;10739;52.198;20.908;2023-01-30T01:15:45;99838.00;;;3.30
45850;BMP180;10739;52.198;20.908;2023-01-30T01:18:11;99823.00;;;3.30
45850;BMP180;10739;52.198;20.908;2023-01-30T01:20:38;99808.00;;;3.40
45850;BMP180;10739;52.198;20.908;2023-01-30T01:23:04;99807.00;;;3.30
45850;BMP180;10739;52.198;20.908;2023-01-30T01:25:30;99786.00;;;3.10
45850;BMP180;10739;52.198;20.908;2023-01-30T01:27:57;99786.00;;;3.60
45850;BMP180;10739;52.198;20.908;2023-01-30T01:30:23;99782.00;;;3.20
45850;BMP180;10739;52.198;20.908;2023-01-30T01:32:49;99778.00;;;3.30
45850;BMP180;10739;52.198;20.908;2023-01-30T01:35:16;99767.00;;;3.40
45850;BMP180;10739;52.198;20.908;2023-01-30T01:37:44;99771.00;;;3.30
45850;BMP180;10739;52.198;20.908;2023-01-30T01:40:19;99763.00;;;3.30
45850;BMP180;10739;52.198;20.908;2023-01-30T01:43:22;99756.00;;;3.10
45850;BMP180;10739;52.198;20.908;2023-01-30T01:45:59;99754.00;;;3.40
45850;BMP180;10739;52.198;20.908;2023-01-30T01:48:39;99759.00;;;3.50
45850;BMP180;10739;52.198;20.908;2023-01-30T01:54:12;99737.00;;;3.00
45850;BMP180;10739;52.198;20.908;2023-01-30T01:56:45;99732.00;;;3.30
45850;BMP180;10739;52.198;20.908;2023-01-30T01:59:24;99712.00;;;3.70
45850;BMP180;10739;52.198;20.908;2023-01-30T02:01:57;99734.00;;;3.50
45850;BMP180;10739;52.198;20.908;2023-01-30T02:04:29;99728.00;;;3.20
45850;BMP180;10739;52.198;20.908;2023-01-30T02:07:19;99718.00;;;3.30
45850;BMP180;10739;52.198;20.908;2023-01-30T02:09:48;99710.00;;;3.40
45850;BMP180;10739;52.198;20.908;2023-01-30T02:12:14;99710.00;;;3.10
45850;BMP180;10739;52.198;20.908;2023-01-30T02:14:42;99708.00;;;3.20
45850;BMP180;10739;52.198;20.908;2023-01-30T02:17:09;99700.00;;;3.30
45850;BMP180;10739;52.198;20.908;2023-01-30T02:20:07;99706.00;;;3.20
45850;BMP180;10739;52.198;20.908;2023-01-30T02:34:29;99672.00;;;3.20
45850;BMP180;10739;52.198;20.908;2023-01-30T02:40:29;99662.00;;;2.80
45850;BMP180;10739;52.198;20.908;2023-01-30T02:46:17;99647.00;;;3.20
45850;BMP180;10739;52.198;20.908;2023-01-30T02:51:34;99648.00;;;2.90
45850;BMP180;10739;52.198;20.908;2023-01-30T02:54:04;99632.00;;;3.30
45850;BMP180;10739;52.198;20.908;2023-01-30T02:56:49;99643.00;;;3.10
45850;BMP180;10739;52.198;20.908;2023-01-30T02:59:29;99637.00;;;3.00
45850;BMP180;10739;52.198;20.908;2023-01-30T03:12:06;99614.00;;;3.00
45850;BMP180;10739;52.198;20.908;2023-01-30T03:14:54;99594.00;;;3.40
45850;BMP180;10739;52.198;20.908;2023-01-30T03:17:23;99591.00;;;3.20
45850;BMP180;10739;52.198;20.908;2023-01-30T03:19:54;99589.00;;;3.10
45850;BMP180;10739;52.198;20.908;2023-01-30T03:22:21;99579.00;;;3.00
45850;BMP180;10739;52.198;20.908;2023-01-30T03:24:50;99568.00;;;3.00
45850;BMP180;10739;52.198;20.908;2023-01-30T03:27:19;99552.00;;;2.90
45850;BMP180;10739;52.198;20.908;2023-01-30T03:29:46;99540.00;;;2.70
45850;BMP180;10739;52.198;20.908;2023-01-30T03:32:12;99538.00;;;2.90
45850;BMP180;10739;52.198;20.908;2023-01-30T03:34:39;99529.00;;;2.70
45850;BMP180;10739;52.198;20.908;2023-01-30T03:37:05;99520.00;;;2.70
45850;BMP180;10739;52.198;20.908;2023-01-30T03:39:32;99520.00;;;2.70
45850;BMP180;10739;52.198;20.908;2023-01-30T03:41:58;99508.00;;;2.60
45850;BMP180;10739;52.198;20.908;2023-01-30T03:44:24;99512.00;;;2.40
45850;BMP180;10739;52.198;20.908;2023-01-30T03:46:51;99507.00;;;2.40
45850;BMP180;10739;52.198;20.908;2023-01-30T03:49:17;99502.00;;;2.50
45850;BMP180;10739;52.198;20.908;2023-01-30T03:51:43;99503.00;;;2.20
45850;BMP180;10739;52.198;20.908;2023-01-30T03:54:10;99518.00;;;2.10
45850;BMP180;10739;52.198;20.908;2023-01-30T03:56:36;99496.00;;;2.40
45850;BMP180;10739;52.198;20.908;2023-01-30T03:59:03;99494.00;;;2.30
45850;BMP180;10739;52.198;20.908;2023-01-30T04:01:29;99498.00;;;2.40
45850;BMP180;10739;52.198;20.908;2023-01-30T04:03:56;99479.00;;;2.40
45850;BMP180;10739;52.198;20.908;2023-01-30T04:06:22;99484.00;;;2.60
45850;BMP180;10739;52.198;20.908;2023-01-30T04:08:52;99471.00;;;2.50
45850;BMP180;10739;52.198;20.908;2023-01-30T04:11:19;99459.00;;;2.40
45850;BMP180;10739;52.198;20.908;2023-01-30T04:13:45;99459.00;;;2.10
45850;BMP180;10739;52.198;20.908;2023-01-30T04:16:22;99468.00;;;2.20
45850;BMP180;10739;52.198;20.908;2023-01-30T04:18:49;99454.00;;;2.60
45850;BMP180;10739;52.198;20.908;2023-01-30T04:21:16;99449.00;;;2.40
45850;BMP180;10739;52.198;20.908;2023-01-30T04:23:42;99438.00;;;2.60
45850;BMP180;10739;52.198;20.908;2023-01-30T04:26:10;99428.00;;;2.30
45850;BMP180;10739;52.198;20.908;2023-01-30T04:28:37;99416.00;;;2.30
45850;BMP180;10739;52.198;20.908;2023-01-30T04:31:03;99422.00;;;2.30
45850;BMP180;10739;52.198;20.908;2023-01-30T04:33:30;99417.00;;;2.20
45850;BMP180;10739;52.198;20.908;2023-01-30T04:36:02;99397.00;;;2.60
45850;BMP180;10739;52.198;20.908;2023-01-30T04:38:30;99395.00;;;2.40
45850;BMP180;10739;52.198;20.908;2023-01-30T04:40:58;99401.00;;;2.40
45850;BMP180;10739;52.198;20.908;2023-01-30T04:43:27;99384.00;;;2.30
45850;BMP180;10739;52.198;20.908;2023-01-30T04:45:54;99375.00;;;2.50
45850;BMP180;10739;52.198;20.908;2023-01-30T04:48:23;99374.00;;;2.60
45850;BMP180;10739;52.198;20.908;2023-01-30T04:50:53;99364.00;;;2.30
45850;BMP180;10739;52.198;20.908;2023-01-30T04:53:20;99373.00;;;2.30
45850;BMP180;10739;52.198;20.908;2023-01-30T04:55:47;99359.00;;;2.60
45850;BMP180;10739;52.198;20.908;2023-01-30T04:58:15;99359.00;;;2.50
45850;BMP180;10739;52.198;20.908;2023-01-30T05:00:41;99360.00;;;2.60
45850;BMP180;10739;52.198;20.908;2023-01-30T05:03:08;99369.00;;;2.50
45850;BMP180;10739;52.198;20.908;2023-01-30T05:05:34;99359.00;;;2.70
45850;BMP180;10739;52.198;20.908;2023-01-30T05:08:02;99343.00;;;2.30
45850;BMP180;10739;52.198;20.908;2023-01-30T05:10:28;99349.00;;;2.50
45850;BMP180;10739;52.198;20.908;2023-01-30T05:12:55;99340.00;;;2.60
45850;BMP180;10739;52.198;20.908;2023-01-30T05:15:21;99334.00;;;2.60
45850;BMP180;10739;52.198;20.908;2023-01-30T05:17:47;99333.00;;;2.70
45850;BMP180;10739;52.198;20.908;2023-01-30T05:20:14;99327.00;;;2.20
45850;BMP180;10739;52.198;20.908;2023-01-30T05:22:40;99312.00;;;2.70
45850;BMP180;10739;52.198;20.908;2023-01-30T05:25:07;99287.00;;;2.40
45850;BMP180;10739;52.198;20.908;2023-01-30T05:27:33;99286.00;;;2.30
45850;BMP180;10739;52.198;20.908;2023-01-30T05:30:00;99289.00;;;2.50
45850;BMP180;10739;52.198;20.908;2023-01-30T05:32:26;99282.00;;;2.40
45850;BMP180;10739;52.198;20.908;2023-01-30T05:34:55;99276.00;;;2.40
45850;BMP180;10739;52.198;20.908;2023-01-30T05:37:22;99268.00;;;2.30
45850;BMP180;10739;52.198;20.908;2023-01-30T05:39:49;99269.00;;;2.50
45850;BMP180;10739;52.198;20.908;2023-01-30T05:42:15;99287.00;;;2.30
45850;BMP180;10739;52.198;20.908;2023-01-30T05:44:41;99289.00;;;2.40
45850;BMP180;10739;52.198;20.908;2023-01-30T05:47:08;99279.00;;;2.40
45850;BMP180;10739;52.198;20.908;2023-01-30T05:49:34;99278.00;;;2.50
45850;BMP180;10739;52.198;20.908;2023-01-30T05:52:00;99265.00;;;2.40
45850;BMP180;10739;52.198;20.908;2023-01-30T05:54:27;99268.00;;;2.40
45850;BMP180;10739;52.198;20.908;2023-01-30T05:56:53;99250.00;;;2.20
45850;BMP180;10739;52.198;20.908;2023-01-30T05:59:20;99256.00;;;2.50
45850;BMP180;10739;52.198;20.908;2023-01-30T06:01:46;99249.00;;;2.40
45850;BMP180;10739;52.198;20.908;2023-01-30T06:04:13;99245.00;;;2.40
45850;BMP180;10739;52.198;20.908;2023-01-30T06:06:39;99247.00;;;2.60
45850;BMP180;10739;52.198;20.908;2023-01-30T06:09:05;99241.00;;;2.40
45850;BMP180;10739;52.198;20.908;2023-01-30T06:11:31;99221.00;;;2.30
45850;BMP180;10739;52.198;20.908;2023-01-30T06:13:58;99219.00;;;2.50
45850;BMP180;10739;52.198;20.908;2023-01-30T06:16:24;99212.00;;;2.50
45850;BMP180;10739;52.198;20.908;2023-01-30T06:18:50;99209.00;;;2.40
45850;BMP180;10739;52.198;20.908;2023-01-30T06:21:17;99211.00;;;2.10
45850;BMP180;10739;52.198;20.908;2023-01-30T06:23:43;99214.00;;;2.20
45850;BMP180;10739;52.198;20.908;2023-01-30T06:26:10;99211.00;;;2.50
45850;BMP180;10739;52.198;20.908;2023-01-30T06:28:36;99210.00;;;2.50
45850;BMP180;10739;52.198;20.908;2023-01-30T06:31:08;99216.00;;;2.40
45850;BMP180;10739;52.198;20.908;2023-01-30T06:33:35;99213.00;;;2.20
45850;BMP180;10739;52.198;20.908;2023-01-30T06:36:01;99204.00;;;2.40
45850;BMP180;10739;52.198;20.908;2023-01-30T06:38:27;99193.00;;;2.60
45850;BMP180;10739;52.198;20.908;2023-01-30T06:40:54;99193.00;;;2.50
45850;BMP180;10739;52.198;20.908;2023-01-30T06:43:20;99190.00;;;2.40
45850;BMP180;10739;52.198;20.908;2023-01-30T06:45:46;99180.00;;;2.90
45850;BMP180;10739;52.198;20.908;2023-01-30T06:48:13;99185.00;;;2.40
45850;BMP180;10739;52.198;20.908;2023-01-30T06:50:39;99181.00;;;2.40
45850;BMP180;10739;52.198;20.908;2023-01-30T06:53:07;99175.00;;;2.70
45850;BMP180;10739;52.198;20.908;2023-01-30T06:55:34;99182.00;;;3.00
45850;BMP180;10739;52.198;20.908;2023-01-30T06:58:07;99176.00;;;2.70
45850;BMP180;10739;52.198;20.908;2023-01-30T07:00:34;99175.00;;;2.80
45850;BMP180;10739;52.198;20.908;2023-01-30T07:03:01;99176.00;;;2.30
45850;BMP180;10739;52.198;20.908;2023-01-30T07:05:27;99163.00;;;2.70
45850;BMP180;10739;52.198;20.908;2023-01-30T07:07:54;99162.00;;;2.60
45850;BMP180;10739;52.198;20.908;2023-01-30T07:10:21;99163.00;;;2.60
45850;BMP180;10739;52.198;20.908;2023-01-30T07:12:48;99147.00;;;2.70
45850;BMP180;10739;52.198;20.908;2023-01-30T07:15:14;99142.00;;;3.20
45850;BMP180;10739;52.198;20.908;2023-01-30T07:17:41;99154.00;;;2.90
45850;BMP180;10739;52.198;20.908;2023-01-30T07:20:09;99137.00;;;2.70
45850;BMP180;10739;52.198;20.908;2023-01-30T07:22:36;99146.00;;;2.60
45850;BMP180;10739;52.198;20.908;2023-01-30T07:25:03;99143.00;;;2.50
45850;BMP180;10739;52.198;20.908;2023-01-30T07:27:30;99135.00;;;2.40
45850;BMP180;10739;52.198;20.908;2023-01-30T07:29:56;99138.00;;;2.80
45850;BMP180;10739;52.198;20.908;2023-01-30T07:32:24;99128.00;;;2.80
45850;BMP180;10739;52.198;20.908;2023-01-30T07:34:50;99115.00;;;2.30
45850;BMP180;10739;52.198;20.908;2023-01-30T07:37:17;99125.00;;;2.50
45850;BMP180;10739;52.198;20.908;2023-01-30T07:39:43;99123.00;;;2.40
45850;BMP180;10739;52.198;20.908;2023-01-30T07:42:10;99115.00;;;2.40
45850;BMP180;10739;52.198;20.908;2023-01-30T07:44:36;99114.00;;;2.30
45850;BMP180;10739;52.198;20.908;2023-01-30T07:47:02;99105.00;;;2.40
45850;BMP180;10739;52.198;20.908;2023-01-30T07:49:29;99089.00;;;2.20
45850;BMP180;10739;52.198;20.908;2023-01-30T07:51:55;99097.00;;;1.90
45850;BMP180;10739;52.198;20.908;2023-01-30T07:54:21;99099.00;;;2.00
45850;BMP180;10739;52.198;20.908;2023-01-30T07:56:48;99097.00;;;1.90
45850;BMP180;10739;52.198;20.908;2023-01-30T07:59:14;99094.00;;;2.10
45850;BMP180;10739;52.198;20.908;2023-01-30T08:01:40;99091.00;;;1.90
45850;BMP180;10739;52.198;20.908;2023-01-30T08:04:06;99090.00;;;1.90
45850;BMP180;10739;52.198;20.908;2023-01-30T08:06:33;99081.00;;;2.10
45850;BMP180;10739;52.198;20.908;2023-01-30T08:09:05;99093.00;;;1.70
45850;BMP180;10739;52.198;20.908;2023-01-30T08:11:31;99071.00;;;1.60
45850;BMP180;10739;52.198;20.908;2023-01-30T08:13:57;99080.00;;;1.90
45850;BMP180;10739;52.198;20.908;2023-01-30T08:16:24;99075.00;;;1.60
45850;BMP180;10739;52.198;20.908;2023-01-30T08:18:50;99066.00;;;1.90
45850;BMP180;10739;52.198;20.908;2023-01-30T08:21:16;99068.00;;;1.60
45850;BMP180;10739;52.198;20.908;2023-01-30T08:23:42;99065.00;;;1.80
45850;BMP180;10739;52.198;20.908;2023-01-30T08:26:09;99056.00;;;1.60
45850;BMP180;10739;52.198;20.908;2023-01-30T08:28:35;99052.00;;;1.70
45850;BMP180;10739;52.198;20.908;2023-01-30T08:31:01;99050.00;;;1.70
45850;BMP180;10739;52.198;20.908;2023-01-30T08:33:27;99059.00;;;1.80
45850;BMP180;10739;52.198;20.908;2023-01-30T08:35:55;99052.00;;;1.70
45850;BMP180;10739;52.198;20.908;2023-01-30T08:38:21;99050.00;;;2.00
45850;BMP180;10739;52.198;20.908;2023-01-30T08:40:48;99051.00;;;1.80
45850;BMP180;10739;52.198;20.908;2023-01-30T08:43:14;99050.00;;;1.60
45850;BMP180;10739;52.198;20.908;2023-01-30T08:45:40;99051.00;;;1.80
45850;BMP180;10739;52.198;20.908;2023-01-30T08:48:07;99044.00;;;1.60
45850;BMP180;10739;52.198;20.908;2023-01-30T08:50:35;99036.00;;;1.90
45850;BMP180;10739;52.198;20.908;2023-01-30T08:53:07;99030.00;;;1.60
45850;BMP180;10739;52.198;20.908;2023-01-30T08:55:35;99018.00;;;1.60
45850;BMP180;10739;52.198;20.908;2023-01-30T08:58:01;99026.00;;;1.40
45850;BMP180;10739;52.198;20.908;2023-01-30T09:00:28;99015.00;;;1.40
45850;BMP180;10739;52.198;20.908;2023-01-30T09:02:56;99005.00;;;1.50
45850;BMP180;10739;52.198;20.908;2023-01-30T09:05:23;99020.00;;;1.60
45850;BMP180;10739;52.198;20.908;2023-01-30T09:07:50;99012.00;;;1.30
45850;BMP180;10739;52.198;20.908;2023-01-30T09:10:17;99010.00;;;1.50
45850;BMP180;10739;52.198;20.908;2023-01-30T09:12:43;98994.00;;;1.60
45850;BMP180;10739;52.198;20.908;2023-01-30T09:15:11;98995.00;;;1.80
45850;BMP180;10739;52.198;20.908;2023-01-30T09:17:38;98996.00;;;1.80
45850;BMP180;10739;52.198;20.908;2023-01-30T09:20:07;98991.00;;;1.80
45850;BMP180;10739;52.198;20.908;2023-01-30T09:22:34;98987.00;;;1.90
45850;BMP180;10739;52.198;20.908;2023-01-30T09:25:00;98977.00;;;1.80
45850;BMP180;10739;52.198;20.908;2023-01-30T09:27:26;98975.00;;;2.00
45850;BMP180;10739;52.198;20.908;2023-01-30T09:29:53;98975.00;;;1.80
45850;BMP180;10739;52.198;20.908;2023-01-30T09:32:19;98969.00;;;1.80
45850;BMP180;10739;52.198;20.908;2023-01-30T09:34:45;98974.00;;;1.80
45850;BMP180;10739;52.198;20.908;2023-01-30T09:37:12;98971.00;;;1.80
45850;BMP180;10739;52.198;20.908;2023-01-30T09:39:38;98956.00;;;1.70
45850;BMP180;10739;52.198;20.908;2023-01-30T09:45:05;98968.00;;;2.50
45850;BMP180;10739;52.198;20.908;2023-01-30T09:47:46;98949.00;;;2.00
45850;BMP180;10739;52.198;20.908;2023-01-30T09:53:49;98936.00;;;2.20
45850;BMP180;10739;52.198;20.908;2023-01-30T09:56:20;98928.00;;;2.40
45850;BMP180;10739;52.198;20.908;2023-01-30T09:59:00;98920.00;;;2.30
45850;BMP180;10739;52.198;20.908;2023-01-30T10:04:40;98917.00;;;2.00
45850;BMP180;10739;52.198;20.908;2023-01-30T10:19:26;98891.00;;;2.00
45850;BMP180;10739;52.198;20.908;2023-01-30T10:22:15;98888.00;;;1.90
45850;BMP180;10739;52.198;20.908;2023-01-30T10:30:43;98877.00;;;2.20
45850;BMP180;10739;52.198;20.908;2023-01-30T10:34:00;98869.00;;;2.20
45850;BMP180;10739;52.198;20.908;2023-01-30T10:36:45;98856.00;;;1.80
45850;BMP180;10739;52.198;20.908;2023-01-30T10:39:30;98860.00;;;2.50
45850;BMP180;10739;52.198;20.908;2023-01-30T10:42:12;98855.00;;;2.20
45850;BMP180;10739;52.198;20.908;2023-01-30T10:44:40;98854.00;;;2.40
45850;BMP180;10739;52.198;20.908;2023-01-30T10:47:53;98844.00;;;2.30
45850;BMP180;10739;52.198;20.908;2023-01-30T10:50:18;98836.00;;;2.60
45850;BMP180;10739;52.198;20.908;2023-01-30T10:53:03;98836.00;;;2.50
45850;BMP180;10739;52.198;20.908;2023-01-30T10:55:39;98836.00;;;2.70
45850;BMP180;10739;52.198;20.908;2023-01-30T11:01:19;98835.00;;;2.40
45850;BMP180;10739;52.198;20.908;2023-01-30T11:04:10;98827.00;;;2.50
45850;BMP180;10739;52.198;20.908;2023-01-30T11:06:40;98826.00;;;3.00
45850;BMP180;10739;52.198;20.908;2023-01-30T11:09:08;98817.00;;;3.10
45850;BMP180;10739;52.198;20.908;2023-01-30T11:11:53;98823.00;;;3.10
45850;BMP180;10739;52.198;20.908;2023-01-30T11:14:20;98805.00;;;3.20
45850;BMP180;10739;52.198;20.908;2023-01-30T11:16:53;98820.00;;;3.00
45850;BMP180;10739;52.198;20.908;2023-01-30T11:19:33;98800.00;;;3.10
45850;BMP180;10739;52.198;20.908;2023-01-30T11:22:03;98810.00;;;3.30
45850;BMP180;10739;52.198;20.908;2023-01-30T11:24:39;98797.00;;;3.30
45850;BMP180;10739;52.198;20.908;2023-01-30T11:27:29;98802.00;;;3.20
45850;BMP180;10739;52.198;20.908;2023-01-30T11:30:18;98800.00;;;3.40
45850;BMP180;10739;52.198;20.908;2023-01-30T11:32:48;98779.00;;;3.10
45850;BMP180;10739;52.198;20.908;2023-01-30T11:35:29;98782.00;;;3.30
45850;BMP180;10739;52.198;20.908;2023-01-30T11:38:19;98774.00;;;3.50
45850;BMP180;10739;52.198;20.908;2023-01-30T11:40:46;98772.00;;;3.80
45850;BMP180;10739;52.198;20.908;2023-01-30T11:43:13;98766.00;;;3.50
45850;BMP180;10739;52.198;20.908;2023-01-30T11:45:47;98772.00;;;3.50
45850;BMP180;10739;52.198;20.908;2023-01-30T11:48:27;98764.00;;;3.60
45850;BMP180;10739;52.198;20.908;2023-01-30T11:51:03;98768.00;;;3.30
45850;BMP180;10739;52.198;20.908;2023-01-30T11:53:50;98763.00;;;3.10
45850;BMP180;10739;52.198;20.908;2023-01-30T11:57:08;98755.00;;;3.70
45850;BMP180;10739;52.198;20.908;2023-01-30T11:59:46;98755.00;;;3.30
45850;BMP180;10739;52.198;20.908;2023-01-30T12:05:00;98759.00;;;3.40
45850;BMP180;10739;52.198;20.908;2023-01-30T12:07:30;98742.00;;;3.40
45850;BMP180;10739;52.198;20.908;2023-01-30T12:09:57;98747.00;;;3.50
45850;BMP180;10739;52.198;20.908;2023-01-30T12:12:48;98756.00;;;3.30
45850;BMP180;10739;52.198;20.908;2023-01-30T12:15:31;98739.00;;;3.30
45850;BMP180;10739;52.198;20.908;2023-01-30T12:18:37;98740.00;;;3.40
45850;BMP180;10739;52.198;20.908;2023-01-30T12:21:43;98739.00;;;3.80
45850;BMP180;10739;52.198;20.908;2023-01-30T12:24:30;98742.00;;;3.70
45850;BMP180;10739;52.198;20.908;2023-01-30T12:27:03;98734.00;;;3.70
45850;BMP180;10739;52.198;20.908;2023-01-30T12:29:46;98736.00;;;3.40
45850;BMP180;10739;52.198;20.908;2023-01-30T12:32:20;98727.00;;;3.40
45850;BMP180;10739;52.198;20.908;2023-01-30T12:34:47;98738.00;;;3.70
45850;BMP180;10739;52.198;20.908;2023-01-30T12:49:49;98742.00;;;3.30
45850;BMP180;10739;52.198;20.908;2023-01-30T12:58:37;98724.00;;;3.50
45850;BMP180;10739;52.198;20.908;2023-01-30T13:10:12;98723.00;;;3.70
45850;BMP180;10739;52.198;20.908;2023-01-30T13:18:50;98711.00;;;3.40
45850;BMP180;10739;52.198;20.908;2023-01-30T13:21:30;98720.00;;;3.90
45850;BMP180;10739;52.198;20.908;2023-01-30T13:24:24;98711.00;;;3.80
45850;BMP180;10739;52.198;20.908;2023-01-30T13:26:53;98728.00;;;3.80
45850;BMP180;10739;52.198;20.908;2023-01-30T13:32:01;98722.00;;;3.90
45850;BMP180;10739;52.198;20.908;2023-01-30T13:34:39;98723.00;;;4.00
45850;BMP180;10739;52.198;20.908;2023-01-30T13:37:13;98722.00;;;3.60
45850;BMP180;10739;52.198;20.908;2023-01-30T13:39:55;98706.00;;;4.10
45850;BMP180;10739;52.198;20.908;2023-01-30T13:45:10;98718.00;;;3.70
45850;BMP180;10739;52.198;20.908;2023-01-30T13:47:54;98706.00;;;3.70
45850;BMP180;10739;52.198;20.908;2023-01-30T13:56:39;98700.00;;;3.40
45850;BMP180;10739;52.198;20.908;2023-01-30T14:09:43;98720.00;;;3.90
45850;BMP180;10739;52.198;20.908;2023-01-30T14:12:24;98724.00;;;3.90
45850;BMP180;10739;52.198;20.908;2023-01-30T14:17:30;98723.00;;;4.00
45850;BMP180;10739;52.198;20.908;2023-01-30T14:22:56;98725.00;;;3.90
45850;BMP180;10739;52.198;20.908;2023-01-30T14:30:51;98743.00;;;3.80
45850;BMP180;10739;52.198;20.908;2023-01-30T14:38:41;98725.00;;;4.10
45850;BMP180;10739;52.198;20.908;2023-01-30T14:41:29;98724.00;;;4.00
45850;BMP180;10739;52.198;20.908;2023-01-30T14:43:56;98722.00;;;3.90
45850;BMP180;10739;52.198;20.908;2023-01-30T14:48:52;98748.00;;;4.00
45850;BMP180;10739;52.198;20.908;2023-01-30T15:02:17;98725.00;;;4.50
45850;BMP180;10739;52.198;20.908;2023-01-30T15:05:10;98742.00;;;3.90
45850;BMP180;10739;52.198;20.908;2023-01-30T15:13:24;98741.00;;;4.50
45850;BMP180;10739;52.198;20.908;2023-01-30T15:32:20;98745.00;;;4.10
45850;BMP180;10739;52.198;20.908;2023-01-30T15:52:03;98750.00;;;4.90
45850;BMP180;10739;52.198;20.908;2023-01-30T15:54:31;98762.00;;;4.60
45850;BMP180;10739;52.198;20.908;2023-01-30T15:56:59;98765.00;;;4.30
45850;BMP180;10739;52.198;20.908;2023-01-30T15:59:34;98779.00;;;4.20
45850;BMP180;10739;52.198;20.908;2023-01-30T16:02:19;98775.00;;;4.40
45850;BMP180;10739;52.198;20.908;2023-01-30T16:04:47;98776.00;;;4.60
45850;BMP180;10739;52.198;20.908;2023-01-30T16:07:16;98778.00;;;4.80
45850;BMP180;10739;52.198;20.908;2023-01-30T16:09:55;98768.00;;;4.70
45850;BMP180;10739;52.198;20.908;2023-01-30T16:12:24;98761.00;;;4.90
45850;BMP180;10739;52.198;20.908;2023-01-30T16:14:51;98777.00;;;4.40
45850;BMP180;10739;52.198;20.908;2023-01-30T16:17:29;98770.00;;;4.50
45850;BMP180;10739;52.198;20.908;2023-01-30T16:19:59;98768.00;;;4.50
45850;BMP180;10739;52.198;20.908;2023-01-30T16:22:32;98760.00;;;4.50
45850;BMP180;10739;52.198;20.908;2023-01-30T16:25:01;98782.00;;;4.40
45850;BMP180;10739;52.198;20.908;2023-01-30T16:27:34;98762.00;;;4.70
45850;BMP180;10739;52.198;20.908;2023-01-30T16:30:05;98761.00;;;4.60
45850;BMP180;10739;52.198;20.908;2023-01-30T16:32:35;98757.00;;;4.50
45850;BMP180;10739;52.198;20.908;2023-01-30T16:37:56;98764.00;;;4.80
45850;BMP180;10739;52.198;20.908;2023-01-30T16:40:26;98774.00;;;4.90
45850;BMP180;10739;52.198;20.908;2023-01-30T16:43:03;98773.00;;;4.90
45850;BMP180;10739;52.198;20.908;2023-01-30T16:51:15;98782.00;;;5.00
45850;BMP180;10739;52.198;20.908;2023-01-30T16:54:03;98782.00;;;4.80
45850;BMP180;10739;52.198;20.908;2023-01-30T16:56:32;98783.00;;;4.90
45850;BMP180;10739;52.198;20.908;2023-01-30T16:59:01;98788.00;;;5.10
45850;BMP180;10739;52.198;20.908;2023-01-30T17:01:40;98785.00;;;4.90
45850;BMP180;10739;52.198;20.908;2023-01-30T17:04:20;98786.00;;;5.30
45850;BMP180;10739;52.198;20.908;2023-01-30T17:07:00;98786.00;;;4.90
45850;BMP180;10739;52.198;20.908;2023-01-30T17:09:44;98781.00;;;4.90
45850;BMP180;10739;52.198;20.908;2023-01-30T17:17:34;98784.00;;;5.00
45850;BMP180;10739;52.198;20.908;2023-01-30T17:20:01;98785.00;;;4.80
45850;BMP180;10739;52.198;20.908;2023-01-30T17:22:27;98794.00;;;5.30
45850;BMP180;10739;52.198;20.908;2023-01-30T17:25:03;98807.00;;;5.20
45850;BMP180;10739;52.198;20.908;2023-01-30T17:27:31;98785.00;;;4.80
45850;BMP180;10739;52.198;20.908;2023-01-30T17:29:57;98783.00;;;4.80
45850;BMP180;10739;52.198;20.908;2023-01-30T17:32:23;98788.00;;;5.00
45850;BMP180;10739;52.198;20.908;2023-01-30T17:34:50;98792.00;;;5.30
45850;BMP180;10739;52.198;20.908;2023-01-30T17:37:19;98800.00;;;5.10
45850;BMP180;10739;52.198;20.908;2023-01-30T17:39:48;98799.00;;;5.10
45850;BMP180;10739;52.198;20.908;2023-01-30T17:42:15;98798.00;;;4.90
45850;BMP180;10739;52.198;20.908;2023-01-30T17:44:47;98804.00;;;5.00
45850;BMP180;10739;52.198;20.908;2023-01-30T17:47:13;98808.00;;;5.50
45850;BMP180;10739;52.198;20.908;2023-01-30T17:49:40;98791.00;;;5.60
45850;BMP180;10739;52.198;20.908;2023-01-30T17:52:07;98807.00;;;5.60
45850;BMP180;10739;52.198;20.908;2023-01-30T17:54:34;98820.00;;;5.40
45850;BMP180;10739;52.198;20.908;2023-01-30T17:57:04;98813.00;;;5.30